Time;durP1;ratioP1;P1;durP2;ratioP2;P2;SDS_P1;SDS_P2;PMS_P1;PMS_P2;Temp;Humidity;BMP_temperature;BMP_pressure;BME280_temperature;BME280_humidity;BME280_pressure;Samples;Min_cycle;Max_cycle;Signal;HPM_P1;HPM_P2
2021/03/01 00:01:52;;;;;;;75.20;15.23;;;0.20;1.00;;;;;;5136262;27;20678;-70
2021/03/01 00:04:18;;;;;;;74.38;15.65;;;0.20;1.00;;;;;;5135936;27;20298;-70
2021/03/01 00:06:45;;;;;;;71.78;13.95;;;0.10;1.00;;;;;;5136136;27;20234;-70
2021/03/01 00:09:11;;;;;;;70.82;13.98;;;0.10;1.00;;;;;;5136571;27;20233;-70
2021/03/01 00:11:38;;;;;;;73.70;13.93;;;0.10;1.00;;;;;;5135927;27;20203;-70
2021/03/01 00:14:05;;;;;;;70.75;13.40;;;0.10;1.00;;;;;;5135969;27;20614;-70
2021/03/01 00:16:32;;;;;;;72.03;14.65;;;0.10;1.00;;;;;;5135890;27;20230;-70
2021/03/01 00:18:58;;;;;;;75.18;14.60;;;0.10;1.00;;;;;;5136026;27;20203;-70
2021/03/01 00:21:24;;;;;;;72.82;14.18;;;0.10;1.00;;;;;;5136009;27;20207;-70
2021/03/01 00:23:51;;;;;;;73.10;13.98;;;0.10;1.00;;;;;;5135633;27;20250;-70
2021/03/01 00:26:17;;;;;;;70.45;13.23;;;0.10;1.00;;;;;;5132463;27;20225;-70
2021/03/01 00:28:44;;;;;;;68.95;11.85;;;0.10;1.00;;;;;;5135569;27;20291;-70
2021/03/01 00:31:10;;;;;;;72.60;14.05;;;0.00;1.00;;;;;;5135561;27;20203;-70
2021/03/01 00:33:37;;;;;;;70.32;12.63;;;0.00;1.00;;;;;;5135323;27;20739;-70
2021/03/01 00:36:04;;;;;;;71.10;13.35;;;0.00;1.00;;;;;;5135296;27;20777;-70
2021/03/01 00:38:30;;;;;;;77.85;15.73;;;0.00;1.00;;;;;;5135192;27;20206;-70
2021/03/01 00:40:57;;;;;;;69.88;13.57;;;-0.10;1.00;;;;;;5135195;27;20293;-70
2021/03/01 00:43:23;;;;;;;73.25;14.30;;;-0.10;1.00;;;;;;5135164;27;20202;-70
2021/03/01 00:45:49;;;;;;;77.38;13.63;;;-0.10;1.00;;;;;;5135171;27;20227;-70
2021/03/01 00:48:16;;;;;;;73.35;13.63;;;-0.10;1.00;;;;;;5135414;27;20290;-70
2021/03/01 00:50:43;;;;;;;73.82;13.10;;;-0.10;1.00;;;;;;5135298;27;20207;-70
2021/03/01 00:53:09;;;;;;;71.22;13.10;;;-0.10;1.00;;;;;;5135602;27;20290;-70
2021/03/01 00:55:36;;;;;;;69.60;13.18;;;-0.10;1.00;;;;;;5135281;27;20254;-70
2021/03/01 00:58:02;;;;;;;70.70;12.13;;;-0.20;1.00;;;;;;5135273;27;20293;-70
2021/03/01 01:00:28;;;;;;;68.70;12.02;;;-0.20;1.00;;;;;;5135033;27;20208;-70
2021/03/01 01:02:55;;;;;;;70.63;12.30;;;-0.20;1.00;;;;;;5135058;27;20294;-70
2021/03/01 01:05:21;;;;;;;71.15;13.18;;;-0.20;1.00;;;;;;5134908;27;20205;-70
2021/03/01 01:07:48;;;;;;;70.72;13.45;;;-0.30;1.00;;;;;;5134705;27;20294;-70
2021/03/01 01:10:15;;;;;;;71.10;12.38;;;-0.30;1.00;;;;;;5135113;27;20289;-70
2021/03/01 01:12:41;;;;;;;72.15;14.05;;;-0.30;1.00;;;;;;5134944;27;20211;-70
2021/03/01 01:15:08;;;;;;;71.82;13.68;;;-0.40;1.00;;;;;;5134808;27;20210;-70
2021/03/01 01:17:35;;;;;;;72.18;13.65;;;-0.40;1.00;;;;;;5134865;27;20281;-70
2021/03/01 01:20:01;;;;;;;69.65;12.32;;;-0.40;1.00;;;;;;5134581;27;20298;-70
2021/03/01 01:22:28;;;;;;;73.10;14.40;;;-0.40;1.00;;;;;;5134582;27;20203;-70
2021/03/01 01:24:55;;;;;;;69.60;12.95;;;-0.50;1.00;;;;;;5134789;27;20227;-70
2021/03/01 01:27:21;;;;;;;69.22;12.73;;;-0.50;1.00;;;;;;5134849;27;20260;-69
2021/03/01 01:29:48;;;;;;;70.90;12.70;;;-0.60;1.00;;;;;;5134576;27;20503;-70
2021/03/01 01:32:14;;;;;;;71.50;12.60;;;-0.60;1.00;;;;;;5134213;27;20203;-70
2021/03/01 01:34:40;;;;;;;72.15;13.05;;;-0.60;1.00;;;;;;5134224;27;20590;-70
2021/03/01 01:37:07;;;;;;;74.13;13.60;;;-0.60;1.00;;;;;;5134426;27;20219;-68
2021/03/01 01:39:33;;;;;;;74.60;13.85;;;-0.60;1.00;;;;;;5134223;27;20730;-68
2021/03/01 01:42:00;;;;;;;72.25;13.50;;;-0.60;1.00;;;;;;5134295;27;20203;-69
2021/03/01 01:44:27;;;;;;;70.85;13.40;;;-0.60;1.00;;;;;;5134281;27;20297;-68
2021/03/01 01:46:53;;;;;;;73.90;15.05;;;-0.60;1.00;;;;;;5134103;27;20234;-68
2021/03/01 01:49:19;;;;;;;73.20;13.95;;;-0.70;1.00;;;;;;5133629;27;20209;-69
2021/03/01 01:51:46;;;;;;;78.13;13.63;;;-0.70;1.00;;;;;;5133560;27;20683;-69
2021/03/01 01:54:12;;;;;;;69.45;12.80;;;-0.70;1.00;;;;;;5133756;27;20234;-69
2021/03/01 01:56:40;;;;;;;75.20;14.48;;;-0.70;1.00;;;;;;5134109;27;20310;-69
2021/03/01 01:59:07;;;;;;;72.60;13.98;;;-0.70;1.00;;;;;;5134371;27;20207;-69
2021/03/01 02:01:34;;;;;;;70.93;12.90;;;-0.80;1.00;;;;;;5134023;27;20210;-69
2021/03/01 02:04:03;;;;;;;71.32;13.32;;;-0.80;1.00;;;;;;5133599;27;20675;-69
2021/03/01 02:06:43;;;;;;;75.32;14.63;;;-0.80;1.00;;;;;;5133839;27;20284;-68
2021/03/01 02:09:22;;;;;;;73.13;13.35;;;-0.90;1.00;;;;;;5133936;27;20749;-68
2021/03/01 02:12:07;;;;;;;74.57;13.73;;;-0.90;1.00;;;;;;5133805;27;20203;-68
2021/03/01 02:14:42;;;;;;;74.60;14.02;;;-0.90;1.00;;;;;;5133593;27;20207;-69
2021/03/01 02:17:09;;;;;;;74.35;14.27;;;-0.90;1.00;;;;;;5133413;27;20309;-69
2021/03/01 02:19:37;;;;;;;71.68;13.85;;;-0.90;1.00;;;;;;5133416;27;20314;-69
2021/03/01 02:22:04;;;;;;;70.25;12.18;;;-0.90;1.00;;;;;;5133442;27;20231;-69
2021/03/01 02:24:38;;;;;;;72.18;13.10;;;-1.00;1.00;;;;;;5133469;27;20203;-69
2021/03/01 02:27:05;;;;;;;70.18;11.75;;;-1.00;1.00;;;;;;5131395;27;20223;-69
2021/03/01 02:29:34;;;;;;;70.03;12.52;;;-1.00;1.00;;;;;;5133382;27;20289;-69
2021/03/01 02:32:05;;;;;;;70.97;13.93;;;-1.00;1.00;;;;;;5133166;27;20203;-69
2021/03/01 02:34:34;;;;;;;71.78;13.52;;;-1.00;1.00;;;;;;5133283;27;20230;-69
2021/03/01 02:37:04;;;;;;;72.75;13.43;;;-1.10;1.00;;;;;;5133085;27;20264;-69
2021/03/01 02:39:33;;;;;;;70.95;13.38;;;-1.10;1.00;;;;;;5132978;27;20295;-69
2021/03/01 02:42:02;;;;;;;72.10;13.15;;;-1.10;1.00;;;;;;5133083;27;20191;-69
2021/03/01 02:44:29;;;;;;;71.57;13.50;;;-1.10;1.00;;;;;;5133294;27;20686;-69
2021/03/01 02:46:59;;;;;;;73.13;13.00;;;-1.10;1.00;;;;;;5133109;27;20635;-69
2021/03/01 02:49:27;;;;;;;70.25;12.18;;;-1.10;1.00;;;;;;5132937;27;20581;-69
2021/03/01 02:51:53;;;;;;;70.85;11.93;;;-1.10;1.00;;;;;;5132754;27;20298;-69
2021/03/01 02:54:24;;;;;;;78.53;14.38;;;-1.10;1.00;;;;;;5133390;27;20206;-69
2021/03/01 02:56:52;;;;;;;72.55;12.95;;;-1.10;1.00;;;;;;5132922;27;20564;-69
2021/03/01 02:59:21;;;;;;;71.65;12.70;;;-1.10;1.00;;;;;;5132962;27;20199;-69
2021/03/01 03:01:48;;;;;;;69.35;12.52;;;-1.10;1.00;;;;;;5133044;27;20266;-69
2021/03/01 03:04:15;;;;;;;73.25;12.57;;;-1.10;1.00;;;;;;5132599;27;20252;-69
2021/03/01 03:06:44;;;;;;;66.65;10.95;;;-1.10;1.00;;;;;;5128734;27;20235;-69
2021/03/01 03:09:12;;;;;;;73.75;12.27;;;-1.10;1.00;;;;;;5132448;27;20290;-69
2021/03/01 03:11:42;;;;;;;68.25;12.15;;;-1.10;1.00;;;;;;5132589;27;20260;-69
2021/03/01 03:14:10;;;;;;;70.88;12.75;;;-1.10;1.00;;;;;;5132406;27;20289;-69
2021/03/01 03:16:37;;;;;;;70.63;11.95;;;-1.10;1.00;;;;;;5132548;27;20219;-69
2021/03/01 03:19:05;;;;;;;73.47;14.02;;;-1.10;1.00;;;;;;5132441;27;20203;-69
2021/03/01 03:21:33;;;;;;;72.40;13.38;;;-1.20;1.00;;;;;;5132774;27;20288;-69
2021/03/01 03:23:59;;;;;;;72.57;14.80;;;-1.20;1.00;;;;;;5132560;27;20203;-69
2021/03/01 03:26:25;;;;;;;72.97;12.75;;;-1.20;1.00;;;;;;5132333;27;20223;-69
2021/03/01 03:28:53;;;;;;;69.88;12.82;;;-1.20;1.00;;;;;;5132736;27;20306;-69
2021/03/01 03:31:19;;;;;;;75.30;13.02;;;-1.20;1.00;;;;;;5132430;27;20669;-69
2021/03/01 03:33:45;;;;;;;69.75;12.98;;;-1.30;1.00;;;;;;5132562;27;20207;-69
2021/03/01 03:36:13;;;;;;;72.43;12.55;;;-1.30;1.00;;;;;;5132280;27;20230;-69
2021/03/01 03:38:43;;;;;;;71.85;14.48;;;-1.30;1.00;;;;;;5132462;27;20563;-69
2021/03/01 03:41:13;;;;;;;70.68;12.45;;;-1.30;1.00;;;;;;5132424;27;20210;-69
2021/03/01 03:43:41;;;;;;;76.07;13.20;;;-1.30;1.00;;;;;;5132235;27;20207;-69
2021/03/01 03:46:10;;;;;;;69.40;11.48;;;-1.30;1.00;;;;;;5132171;27;20631;-69
2021/03/01 03:48:37;;;;;;;73.63;13.73;;;-1.30;1.00;;;;;;5132561;27;20285;-69
2021/03/01 03:51:07;;;;;;;76.43;14.63;;;-1.40;1.00;;;;;;5132486;27;20206;-69
2021/03/01 03:53:39;;;;;;;69.63;11.50;;;-1.40;1.00;;;;;;5132209;27;20214;-69
2021/03/01 03:56:07;;;;;;;71.50;12.80;;;-1.40;1.00;;;;;;5132197;27;20226;-69
2021/03/01 03:58:39;;;;;;;76.55;13.05;;;-1.40;1.00;;;;;;5131971;27;20215;-69
2021/03/01 04:01:07;;;;;;;71.15;12.55;;;-1.40;1.00;;;;;;5132541;27;20199;-69
2021/03/01 04:03:37;;;;;;;76.57;13.77;;;-1.50;1.00;;;;;;5132648;27;20206;-69
2021/03/01 04:06:03;;;;;;;71.25;13.05;;;-1.50;1.00;;;;;;5132368;27;20227;-69
2021/03/01 04:08:30;;;;;;;71.53;13.02;;;-1.50;1.00;;;;;;5132161;27;20290;-69
2021/03/01 04:10:58;;;;;;;74.25;13.50;;;-1.50;1.00;;;;;;5132085;27;20199;-69
2021/03/01 04:13:27;;;;;;;69.20;12.77;;;-1.50;1.00;;;;;;5132253;27;20215;-70
2021/03/01 04:15:54;;;;;;;73.00;12.77;;;-1.50;1.00;;;;;;5133641;27;20236;-69
2021/03/01 04:18:26;;;;;;;71.85;13.50;;;-1.60;1.00;;;;;;5136032;27;20313;-69
2021/03/01 04:20:56;;;;;;;70.13;12.68;;;-1.60;1.00;;;;;;5136061;27;20211;-69
2021/03/01 04:23:24;;;;;;;75.00;13.20;;;-1.60;1.00;;;;;;5135710;27;20534;-69
2021/03/01 04:25:51;;;;;;;70.32;12.98;;;-1.60;1.00;;;;;;5135389;27;20231;-69
2021/03/01 04:28:19;;;;;;;72.45;12.60;;;-1.70;1.00;;;;;;5129522;27;20233;-69
2021/03/01 04:30:48;;;;;;;75.13;12.40;;;-1.70;1.00;;;;;;5135692;27;20255;-69
2021/03/01 04:33:16;;;;;;;75.65;13.43;;;-1.70;1.00;;;;;;5135360;27;20207;-69
2021/03/01 04:35:43;;;;;;;71.43;12.48;;;-1.70;1.00;;;;;;5135294;27;20231;-69
2021/03/01 04:38:10;;;;;;;71.93;13.15;;;-1.70;1.00;;;;;;5135515;27;20205;-69
2021/03/01 04:40:37;;;;;;;72.43;13.20;;;-1.70;1.00;;;;;;5135914;27;20286;-69
2021/03/01 04:43:07;;;;;;;72.45;12.30;;;-1.80;1.00;;;;;;5126900;27;20637;-69
2021/03/01 04:45:34;;;;;;;72.70;13.70;;;-1.80;1.00;;;;;;5135528;27;20276;-69
2021/03/01 04:48:01;;;;;;;74.28;13.90;;;-1.80;1.00;;;;;;5135474;27;20295;-69
2021/03/01 04:50:28;;;;;;;71.72;13.40;;;-1.80;1.00;;;;;;5135190;27;20199;-69
2021/03/01 04:52:54;;;;;;;70.60;11.65;;;-1.80;1.00;;;;;;5135232;27;20633;-69
2021/03/01 04:55:22;;;;;;;70.45;13.15;;;-1.80;1.00;;;;;;5135287;27;20230;-69
2021/03/01 04:57:49;;;;;;;72.03;12.80;;;-1.80;1.00;;;;;;5135447;27;20252;-69
2021/03/01 05:00:18;;;;;;;69.68;11.52;;;-1.90;1.00;;;;;;5135232;27;20207;-69
2021/03/01 05:02:45;;;;;;;75.03;13.77;;;-1.90;1.00;;;;;;5135090;27;20210;-69
2021/03/01 05:05:12;;;;;;;71.78;12.82;;;-1.90;1.00;;;;;;5134870;27;20521;-69
2021/03/01 05:07:40;;;;;;;70.75;12.30;;;-1.90;1.00;;;;;;5135155;27;20773;-69
2021/03/01 05:10:09;;;;;;;71.95;13.52;;;-1.90;1.00;;;;;;5135045;27;20293;-70
2021/03/01 05:12:36;;;;;;;73.75;13.77;;;-1.90;1.00;;;;;;5134912;27;20531;-70
2021/03/01 05:15:03;;;;;;;72.53;13.68;;;-1.90;1.00;;;;;;5134887;27;20203;-70
2021/03/01 05:17:29;;;;;;;73.22;14.35;;;-1.90;1.00;;;;;;5134749;27;20629;-70
2021/03/01 05:19:56;;;;;;;72.00;12.38;;;-1.90;1.00;;;;;;5134639;27;20646;-70
2021/03/01 05:22:22;;;;;;;69.80;12.80;;;-1.90;1.00;;;;;;5134811;27;20206;-70
2021/03/01 05:24:49;;;;;;;69.35;12.80;;;-2.00;1.00;;;;;;5134762;27;20203;-70
2021/03/01 05:27:15;;;;;;;75.25;14.57;;;-2.00;1.00;;;;;;5133319;27;20307;-70
2021/03/01 05:29:42;;;;;;;79.32;19.73;;;-2.00;1.00;;;;;;5134595;27;20682;-70
2021/03/01 05:32:09;;;;;;;78.65;17.75;;;-2.00;1.00;;;;;;5127759;27;20260;-70
2021/03/01 05:34:35;;;;;;;78.43;18.20;;;-2.00;1.00;;;;;;5134381;27;20215;-70
2021/03/01 05:37:01;;;;;;;78.88;17.38;;;-2.00;1.00;;;;;;5134376;27;20275;-70
2021/03/01 05:39:28;;;;;;;79.22;18.25;;;-2.00;1.00;;;;;;5134347;27;20245;-70
2021/03/01 05:41:55;;;;;;;74.68;15.65;;;-2.00;1.00;;;;;;5134375;27;20290;-70
2021/03/01 05:44:22;;;;;;;74.15;15.65;;;-2.00;1.00;;;;;;5134391;27;20749;-70
2021/03/01 05:46:49;;;;;;;72.40;14.05;;;-2.00;1.00;;;;;;5133945;27;20336;-70
2021/03/01 05:49:16;;;;;;;74.50;14.05;;;-1.90;1.00;;;;;;5134278;27;20304;-70
2021/03/01 05:51:49;;;;;;;72.88;13.75;;;-1.90;1.00;;;;;;5134368;27;20209;-70
2021/03/01 05:54:19;;;;;;;74.90;14.48;;;-1.90;1.00;;;;;;5134123;27;20199;-70
2021/03/01 05:56:46;;;;;;;74.82;13.90;;;-1.90;1.00;;;;;;5130522;27;20219;-70
2021/03/01 05:59:14;;;;;;;76.22;14.45;;;-2.00;1.00;;;;;;5133691;27;20206;-70
2021/03/01 06:01:42;;;;;;;73.82;15.23;;;-2.00;1.00;;;;;;5134153;27;20214;-70
2021/03/01 06:04:10;;;;;;;75.15;13.73;;;-1.90;1.00;;;;;;5133742;27;20199;-70
2021/03/01 06:06:37;;;;;;;72.75;12.85;;;-1.90;1.00;;;;;;5133662;27;20309;-70
2021/03/01 06:09:04;;;;;;;70.60;13.27;;;-2.00;1.00;;;;;;5134091;27;20294;-70
2021/03/01 06:11:30;;;;;;;75.88;15.93;;;-1.90;1.00;;;;;;5134177;27;20289;-70
2021/03/01 06:13:56;;;;;;;76.57;13.63;;;-2.00;1.00;;;;;;5133272;27;20203;-70
2021/03/01 06:16:23;;;;;;;73.38;13.70;;;-2.00;1.00;;;;;;5133655;27;20694;-70
2021/03/01 06:18:49;;;;;;;72.57;12.73;;;-2.00;1.00;;;;;;5133440;27;20203;-70
2021/03/01 06:21:18;;;;;;;75.63;14.48;;;-2.00;1.00;;;;;;5133762;27;20582;-70
2021/03/01 06:23:45;;;;;;;75.40;16.60;;;-2.00;1.00;;;;;;5133199;27;20210;-70
2021/03/01 06:26:23;;;;;;;73.63;15.30;;;-2.00;1.00;;;;;;5133197;27;20256;-70
2021/03/01 06:28:50;;;;;;;80.10;14.32;;;-2.00;1.00;;;;;;5126289;27;20223;-70
2021/03/01 06:31:48;;;;;;;77.53;13.40;;;-1.90;1.00;;;;;;5128290;27;20202;-70
2021/03/01 06:34:35;;;;;;;79.60;15.18;;;-1.90;1.00;;;;;;5069527;28;20300;-70
2021/03/01 06:37:07;;;;;;;73.82;15.38;;;-1.90;1.00;;;;;;5127340;27;20309;-70
2021/03/01 06:39:38;;;;;;;74.85;12.98;;;-1.80;1.00;;;;;;5132694;27;20210;-70
2021/03/01 06:42:29;;;;;;;71.70;13.13;;;-1.80;1.00;;;;;;5132942;27;20213;-70
2021/03/01 06:45:15;;;;;;;74.82;14.68;;;-1.70;1.00;;;;;;5133084;27;20263;-70
2021/03/01 06:47:47;;;;;;;69.90;12.68;;;-1.70;1.00;;;;;;5133374;27;20223;-70
2021/03/01 06:50:32;;;;;;;73.47;13.68;;;-1.60;1.00;;;;;;5133103;27;20574;-70
2021/03/01 06:53:00;;;;;;;75.90;15.82;;;-1.60;1.00;;;;;;5130492;27;20207;-70
2021/03/01 06:55:28;;;;;;;71.90;13.82;;;-1.50;1.00;;;;;;5132322;27;20230;-70
2021/03/01 06:57:54;;;;;;;73.30;14.40;;;-1.50;1.00;;;;;;5131851;27;20202;-70
2021/03/01 07:00:26;;;;;;;72.38;12.55;;;-1.40;1.00;;;;;;5132063;27;20213;-69
2021/03/01 07:02:53;;;;;;;74.60;13.55;;;-1.40;1.00;;;;;;5132061;27;20203;-70
2021/03/01 07:05:20;;;;;;;79.07;14.10;;;-1.30;1.00;;;;;;5132185;27;20203;-70
2021/03/01 07:07:46;;;;;;;76.60;15.30;;;-1.30;1.00;;;;;;5132092;27;20590;-70
2021/03/01 07:10:14;;;;;;;75.57;13.73;;;-1.20;1.00;;;;;;5131905;27;20209;-70
2021/03/01 07:12:42;;;;;;;74.18;14.68;;;-1.20;1.00;;;;;;5132541;27;20298;-70
2021/03/01 07:15:10;;;;;;;75.70;14.55;;;-1.10;1.00;;;;;;5132723;27;20290;-70
2021/03/01 07:17:38;;;;;;;74.45;14.63;;;-1.10;1.00;;;;;;5132654;27;20199;-70
2021/03/01 07:20:07;;;;;;;74.95;14.98;;;-1.00;1.00;;;;;;5132512;27;20239;-70
2021/03/01 07:22:37;;;;;;;77.25;14.85;;;-0.90;1.00;;;;;;5132369;27;20586;-70
2021/03/01 07:25:05;;;;;;;74.13;15.93;;;-0.90;1.00;;;;;;5132693;27;20214;-70
2021/03/01 07:27:38;;;;;;;73.88;15.18;;;-0.80;1.00;;;;;;5132676;27;20223;-70
2021/03/01 07:30:06;;;;;;;74.72;15.35;;;-0.70;1.00;;;;;;5132641;27;20199;-70
2021/03/01 07:32:33;;;;;;;73.93;14.75;;;-0.70;1.00;;;;;;5132310;27;20202;-70
2021/03/01 07:35:01;;;;;;;77.53;16.23;;;-0.60;1.00;;;;;;5132261;27;20219;-70
2021/03/01 07:37:27;;;;;;;73.18;14.00;;;-0.60;1.00;;;;;;5132344;27;20263;-70
2021/03/01 07:39:54;;;;;;;77.93;16.80;;;-0.50;1.00;;;;;;5132658;27;20351;-70
2021/03/01 07:42:21;;;;;;;77.18;13.38;;;-0.50;1.00;;;;;;5132488;27;20290;-70
2021/03/01 07:44:53;;;;;;;74.25;16.48;;;-0.40;1.00;;;;;;5132505;27;20646;-70
2021/03/01 07:47:27;;;;;;;78.40;14.73;;;-0.40;1.00;;;;;;5132338;27;20226;-70
2021/03/01 07:49:53;;;;;;;76.78;14.32;;;-0.30;1.00;;;;;;5132149;27;20199;-70
2021/03/01 07:52:37;;;;;;;70.85;14.45;;;-0.20;1.00;;;;;;5135688;27;20259;-70
2021/03/01 07:55:06;;;;;;;75.00;13.77;;;-0.10;1.00;;;;;;5136005;27;20293;-70
2021/03/01 07:57:34;;;;;;;75.18;15.77;;;-0.10;1.00;;;;;;5135894;27;20212;-70
2021/03/01 08:00:23;;;;;;;76.57;16.50;;;0.00;1.00;;;;;;5136184;27;20733;-70
2021/03/01 08:02:49;;;;;;;75.18;16.17;;;0.10;1.00;;;;;;5136098;27;20336;-70
2021/03/01 08:05:27;;;;;;;80.63;16.23;;;0.10;1.00;;;;;;5136049;27;20690;-70
2021/03/01 08:07:54;;;;;;;76.22;16.85;;;0.20;1.00;;;;;;5136245;27;20223;-70
2021/03/01 08:10:45;;;;;;;74.10;15.82;;;0.30;1.00;;;;;;5136281;27;20504;-70
2021/03/01 08:13:11;;;;;;;79.20;15.88;;;0.40;1.00;;;;;;5136369;27;20856;-70
2021/03/01 08:15:43;;;;;;;75.85;15.70;;;0.50;1.00;;;;;;5136020;27;20310;-70
2021/03/01 08:18:12;;;;;;;75.57;14.13;;;0.60;1.00;;;;;;5135959;27;20686;-70
2021/03/01 08:20:52;;;;;;;73.93;16.45;;;0.70;1.00;;;;;;5135887;27;20207;-70
2021/03/01 08:23:20;;;;;;;73.35;15.55;;;0.80;1.00;;;;;;5135624;27;20290;-69
2021/03/01 08:25:58;;;;;;;75.53;15.38;;;1.00;1.00;;;;;;5135938;27;20234;-70
2021/03/01 08:28:54;;;;;;;72.55;15.15;;;1.10;1.00;;;;;;5135912;27;20230;-70
2021/03/01 08:31:23;;;;;;;72.32;14.45;;;1.20;1.00;;;;;;5135770;27;20646;-70
2021/03/01 08:33:49;;;;;;;80.32;15.82;;;1.40;1.00;;;;;;5135658;27;20282;-70
2021/03/01 08:36:25;;;;;;;75.72;16.38;;;1.50;1.00;;;;;;5135460;27;20737;-70
2021/03/01 08:38:54;;;;;;;77.68;16.35;;;1.70;1.00;;;;;;5135746;27;20268;-70
2021/03/01 08:41:42;;;;;;;75.28;16.45;;;1.90;1.00;;;;;;5135656;27;20210;-70
2021/03/01 08:44:20;;;;;;;84.90;17.63;;;2.00;1.00;;;;;;5135281;27;20260;-69
2021/03/01 08:46:48;;;;;;;77.60;16.92;;;2.20;1.00;;;;;;5135448;27;20320;-70
2021/03/01 08:49:23;;;;;;;79.00;17.35;;;2.30;1.00;;;;;;5135804;27;20206;-70
2021/03/01 08:51:50;;;;;;;75.15;17.27;;;2.40;1.00;;;;;;5135137;27;20206;-70
2021/03/01 08:54:26;;;;;;;75.00;16.08;;;2.60;1.00;;;;;;5135065;27;20702;-69
2021/03/01 08:57:05;;;;;;;79.65;17.25;;;2.70;1.00;;;;;;5135190;27;20735;-69
2021/03/01 08:59:32;;;;;;;75.20;15.57;;;2.90;1.00;;;;;;5135282;27;20290;-69
2021/03/01 09:01:58;;;;;;;76.70;15.93;;;3.10;1.00;;;;;;5134885;27;20286;-69
2021/03/01 09:04:25;;;;;;;74.88;16.10;;;3.20;1.00;;;;;;5135038;27;20336;-70
2021/03/01 09:06:51;;;;;;;69.18;13.65;;;3.40;1.00;;;;;;5134837;27;20705;-70
2021/03/01 09:09:17;;;;;;;71.57;13.80;;;3.50;1.00;;;;;;5135295;27;20620;-69
2021/03/01 09:11:44;;;;;;;76.45;13.95;;;3.70;1.00;;;;;;5135028;27;20241;-70
2021/03/01 09:14:11;;;;;;;71.65;15.55;;;3.90;1.00;;;;;;5134829;27;20210;-68
2021/03/01 09:16:40;;;;;;;70.22;12.68;;;4.00;1.00;;;;;;5134868;27;20309;-68
2021/03/01 09:19:08;;;;;;;72.15;14.15;;;4.20;1.00;;;;;;5134672;27;20213;-68
2021/03/01 09:21:39;;;;;;;72.43;13.60;;;4.30;1.00;;;;;;5134607;27;20583;-68
2021/03/01 09:24:06;;;;;;;71.47;13.65;;;4.50;1.00;;;;;;5134495;27;20227;-68
2021/03/01 09:26:35;;;;;;;70.75;12.35;;;4.70;1.00;;;;;;5134840;27;20237;-68
2021/03/01 09:29:06;;;;;;;75.38;14.00;;;4.90;1.00;;;;;;5134665;27;20634;-68
2021/03/01 09:31:39;;;;;;;70.97;13.00;;;5.10;1.00;;;;;;5135098;27;20207;-69
2021/03/01 09:34:05;;;;;;;73.25;13.77;;;5.30;1.00;;;;;;5134748;27;20203;-69
2021/03/01 09:36:32;;;;;;;69.80;12.63;;;5.40;1.00;;;;;;5134571;27;20218;-69
2021/03/01 09:39:00;;;;;;;72.97;14.02;;;5.70;1.00;;;;;;5134655;27;20810;-69
2021/03/01 09:41:33;;;;;;;67.55;11.35;;;6.00;1.00;;;;;;5134424;27;20210;-69
2021/03/01 09:44:01;;;;;;;72.50;13.30;;;6.10;1.00;;;;;;5134178;27;20290;-69
2021/03/01 09:46:27;;;;;;;67.70;13.18;;;6.40;1.00;;;;;;5133887;27;20245;-69
2021/03/01 09:48:59;;;;;;;70.25;12.20;;;6.60;1.00;;;;;;5134146;27;20293;-69
2021/03/01 09:51:26;;;;;;;66.55;10.70;;;6.90;1.00;;;;;;5134311;27;20552;-69
2021/03/01 09:53:53;;;;;;;67.57;11.88;;;7.20;1.00;;;;;;5134006;27;20251;-69
2021/03/01 09:56:19;;;;;;;69.30;12.32;;;7.50;1.00;;;;;;5134492;27;20317;-69
2021/03/01 09:58:46;;;;;;;67.65;11.88;;;7.80;1.00;;;;;;5134007;27;20295;-69
2021/03/01 10:01:14;;;;;;;65.88;10.45;;;8.10;1.00;;;;;;5133934;27;20214;-70
2021/03/01 10:03:42;;;;;;;66.60;11.17;;;8.50;1.00;;;;;;5133789;27;20210;-68
2021/03/01 10:06:10;;;;;;;68.33;11.43;;;9.90;1.00;;;;;;5133682;27;20512;-70
2021/03/01 10:08:37;;;;;;;68.57;12.10;;;12.00;1.00;;;;;;5133860;27;20483;-67
2021/03/01 10:11:04;;;;;;;67.93;12.10;;;14.10;1.00;;;;;;5133919;27;20453;-68
2021/03/01 10:13:33;;;;;;;65.20;11.97;;;15.80;1.00;;;;;;5132818;27;20452;-68
2021/03/01 10:16:01;;;;;;;68.13;12.00;;;17.30;1.00;;;;;;5133824;27;20465;-68
2021/03/01 10:18:29;;;;;;;67.53;11.87;;;18.30;1.00;;;;;;5133457;27;20444;-68
2021/03/01 10:21:01;;;;;;;65.30;11.13;;;19.10;1.00;;;;;;5133756;27;20539;-68
2021/03/01 10:23:34;;;;;;;65.20;10.77;;;19.80;1.00;;;;;;5133362;27;21016;-69
2021/03/01 10:26:22;;;;;;;67.67;12.90;;;20.60;1.00;;;;;;5133296;27;20932;-69
2021/03/01 10:28:58;;;;;;;65.00;11.20;;;21.40;1.00;;;;;;5128290;27;20442;-69
2021/03/01 10:31:26;;;;;;;64.77;11.83;;;22.10;1.00;;;;;;5133604;27;20635;-69
2021/03/01 10:33:57;;;;;;;64.20;12.00;;;22.70;1.00;;;;;;5133137;27;20456;-69
2021/03/01 10:36:25;;;;;;;63.67;11.17;;;23.10;1.00;;;;;;5133158;27;20496;-69
2021/03/01 10:38:56;;;;;;;66.10;10.90;;;23.50;1.00;;;;;;5133220;27;20449;-69
2021/03/01 10:41:24;;;;;;;66.10;12.03;;;24.10;1.00;;;;;;5133461;27;20451;-69
2021/03/01 10:43:56;;;;;;;69.13;10.20;;;24.40;1.00;;;;;;5133211;27;20448;-69
2021/03/01 10:46:34;;;;;;;65.27;10.50;;;24.60;1.00;;;;;;5132978;27;20954;-70
2021/03/01 10:49:01;;;;;;;62.90;10.40;;;25.10;1.00;;;;;;5133391;27;20491;-69
2021/03/01 10:51:28;;;;;;;65.57;11.20;;;25.30;1.00;;;;;;5133568;27;20504;-69
2021/03/01 10:53:55;;;;;;;64.97;10.97;;;25.50;1.00;;;;;;5132825;27;20446;-69
2021/03/01 10:56:21;;;;;;;63.17;9.97;;;25.60;1.00;;;;;;5132757;27;20987;-69
2021/03/01 10:58:49;;;;;;;62.77;10.57;;;25.60;1.00;;;;;;5132836;27;20982;-69
2021/03/01 11:01:16;;;;;;;61.67;9.20;;;25.80;1.00;;;;;;5132828;27;20475;-70
2021/03/01 11:03:43;;;;;;;60.93;8.50;;;26.10;1.00;;;;;;5132433;27;20983;-67
2021/03/01 11:06:10;;;;;;;60.47;7.77;;;26.30;1.00;;;;;;5132612;27;20476;-69
2021/03/01 11:08:36;;;;;;;60.37;7.20;;;26.70;1.00;;;;;;5132504;27;21086;-69
2021/03/01 11:11:03;;;;;;;60.57;7.67;;;26.70;1.00;;;;;;5132945;27;20942;-66
2021/03/01 11:13:29;;;;;;;62.40;7.67;;;26.90;1.00;;;;;;5131399;27;20446;-68
2021/03/01 11:15:56;;;;;;;59.67;6.53;;;27.20;1.00;;;;;;5132463;27;20461;-68
2021/03/01 11:18:22;;;;;;;60.23;6.77;;;27.50;1.00;;;;;;5132761;27;20453;-68
2021/03/01 11:20:49;;;;;;;60.60;6.70;;;27.60;1.00;;;;;;5132584;27;20815;-68
2021/03/01 11:23:15;;;;;;;62.30;7.70;;;27.90;1.00;;;;;;5132684;27;20444;-68
2021/03/01 11:25:41;;;;;;;59.77;6.57;;;27.90;1.00;;;;;;5132853;27;20474;-68
2021/03/01 11:28:11;;;;;;;60.50;6.17;;;28.10;1.00;;;;;;5132525;27;20514;-68
2021/03/01 11:30:37;;;;;;;59.60;6.40;;;28.40;1.00;;;;;;5132298;27;20455;-68
2021/03/01 11:33:05;;;;;;;60.20;6.67;;;28.60;1.00;;;;;;5132369;27;20944;-69
2021/03/01 11:35:32;;;;;;;60.17;6.17;;;28.60;1.00;;;;;;5132279;27;20566;-69
2021/03/01 11:37:58;;;;;;;59.90;6.13;;;28.70;1.00;;;;;;5132536;27;20570;-70
2021/03/01 11:40:25;;;;;;;60.63;5.80;;;29.10;1.00;;;;;;5132368;27;20436;-69
2021/03/01 11:42:51;;;;;;;59.90;6.83;;;29.70;1.00;;;;;;5132261;27;20452;-69
2021/03/01 11:45:19;;;;;;;59.40;6.23;;;29.90;1.00;;;;;;5132087;27;20882;-69
2021/03/01 11:47:45;;;;;;;58.47;6.10;;;29.30;1.00;;;;;;5132221;27;20478;-70
2021/03/01 11:50:12;;;;;;;58.70;5.90;;;29.40;1.00;;;;;;5132412;27;20447;-69
2021/03/01 11:52:39;;;;;;;59.37;6.20;;;29.60;1.00;;;;;;5132354;27;20821;-69
2021/03/01 11:55:06;;;;;;;58.90;5.90;;;29.70;1.00;;;;;;5132161;27;20577;-69
2021/03/01 11:57:32;;;;;;;59.10;6.53;;;29.70;1.00;;;;;;5132215;27;20449;-67
2021/03/01 11:59:59;;;;;;;59.50;6.00;;;29.70;1.00;;;;;;5132094;27;20447;-70
2021/03/01 12:02:26;;;;;;;58.00;5.33;;;29.80;1.00;;;;;;5132089;27;20944;-70
2021/03/01 12:04:52;;;;;;;58.67;5.70;;;29.80;1.00;;;;;;5132149;27;20531;-70
2021/03/01 12:07:18;;;;;;;58.57;6.13;;;29.70;1.00;;;;;;5132592;27;20480;-67
2021/03/01 12:09:45;;;;;;;60.47;7.80;;;29.80;1.00;;;;;;5132100;27;20994;-69
2021/03/01 12:12:11;;;;;;;58.83;6.80;;;30.50;1.00;;;;;;5131872;27;20864;-70
2021/03/01 12:14:37;;;;;;;62.30;8.37;;;30.80;1.00;;;;;;5131997;27;20444;-67
2021/03/01 12:17:04;;;;;;;58.97;6.60;;;31.60;1.00;;;;;;5132055;27;20511;-67
2021/03/01 12:19:31;;;;;;;60.17;7.77;;;32.10;1.00;;;;;;5131902;27;20456;-68
2021/03/01 12:21:57;;;;;;;59.80;7.20;;;32.70;1.00;;;;;;5131998;27;20884;-69
2021/03/01 12:24:24;;;;;;;60.73;7.33;;;33.40;1.00;;;;;;5132020;27;20469;-68
2021/03/01 12:26:50;;;;;;;58.83;6.57;;;33.90;1.00;;;;;;5132250;27;20487;-68
2021/03/01 12:29:17;;;;;;;60.20;7.37;;;34.60;1.00;;;;;;5124124;27;20444;-68
2021/03/01 12:31:43;;;;;;;61.77;7.57;;;34.90;1.00;;;;;;5126551;27;20548;-68
2021/03/01 12:34:10;;;;;;;59.00;6.83;;;35.40;1.00;;;;;;5123222;27;20457;-68
2021/03/01 12:36:37;;;;;;;59.33;6.70;;;35.50;1.00;;;;;;5123769;27;20469;-69
2021/03/01 12:39:04;;;;;;;58.93;7.23;;;35.60;1.00;;;;;;5122495;27;20452;-69
2021/03/01 12:41:30;;;;;;;59.77;7.20;;;35.50;1.00;;;;;;5129034;27;20892;-69
2021/03/01 12:43:57;;;;;;;59.13;7.47;;;35.80;1.00;;;;;;5135260;27;20556;-69
2021/03/01 12:46:23;;;;;;;58.83;6.67;;;36.00;1.00;;;;;;5135341;27;20581;-69
2021/03/01 12:48:49;;;;;;;61.90;6.90;;;36.20;1.00;;;;;;5135186;27;20543;-68